KIAB/IAB METAR and TAF weather

Enter ICAO airport designator
Station Type Date Time Source
KIAB METAR 2019/12/06 08:56 UTC NOAA

KIAB 060856Z AUTO 36018G24KT 10SM SCT120 04/00 A3016 RMK AO2 PK WND 19030/21 SLP218 T00431003 52035 $


Station Type Date Time Source
KIAB Decoded METAR 2019/12/06 08:56 UTC NOAA

McConnell Air Force Base, KS, United States (KIAB) 37-37N 097-16W
Dec 06, 2019 - 03:56 AM EST / 2019.12.06 0856 UTC
Wind: from the N (360 degrees) at 21 MPH (18 KT) gusting to 28 MPH (24 KT):0
Visibility: 10 mile(s):0
Sky conditions: partly cloudy
Temperature: 39.7 F (4.3 C)
Dew Point: 31.5 F (-0.3 C)
Relative Humidity: 71%
Pressure (altimeter): 30.16 in. Hg (1021 hPa)
Pressure tendency: 0.10 inches (3.5 hPa) higher than three hours ago
ob: KIAB 060856Z AUTO 36018G24KT 10SM SCT120 04/00 A3016 RMK AO2 PK WND 19030/21 SLP218 T00431003 52035
cycle: 9

Station Type Date Time Source
KIAB TAF 2019/12/06 02:03 UTC NOAA

TAF KIAB 060200Z 0602/0708 36009KT 9999 BKN150 OVC170 QNH2992INS
BECMG 0606/0607 34020G30KT 9999 BKN065 510053 QNH2999INS
BECMG 0609/0610 35020G30KT 8000 BR OVC005 510063 QNH3010INS
BECMG 0615/0616 36015G25KT 9999 NSW SCT014 510143 QNH3030INS
BECMG 0620/0621 36012KT 9999 SKC QNH3033INS
BECMG 0623/0624 VRB06KT 9999 SKC QNH3034INS TX12/0602Z TN01/0612Z

Example: see airport list